РПИ Ереван

Район полетной информации Ереван (UDDD) обеспечивает организацию воздушного движения в воздушном пространстве Армении в сети VATSIM.

В состав РПИ входит один международный аэропорт (Звартноц, г. Ереван), один аэропорт совместного базирования (Ширак, г. Гюмри), и один военный аэропорт (Эребуни, г. Еерван).

В воздушном пространстве Грузии и Армении по соглашению обеих стран в верхнем воздушном пространстве возможно применение Free-Route при планировании маршрута. На схеме ниже представлены точки на границе воздушного пространства Армении. Точки на границе с воздушным пространством Грузии (OGEVI, TAVRO, TISOT) обязательно должны быть указаны в плане полета, если полет проходит через оба воздушных пространства по технологии Free-Route.

Руководитель РПИ

Grigori Badalov*

Инструкторы РПИ
Grigori Badalov (Instructor)
Входит в состав
ЗЦ Ростов-на-Дону

Диспетчеры РПИ

Диспетчер Рейтинг Допуски *
Grigori Badalov Instructor UDDD_CTR
Ivan Chernov Senior Controller UDDD_CTR
Valeriy Polostyanoy Instructor UDDD_CTR

Аэропорты РПИ

ICAO Город Название Погода
UDYZ Ереван Звартноц UDYZ 161800Z 03002KT 9999 NSC M05/M14 Q1015 R09/010070 NOSIG
UDSG Гюмри Ширак UDSG 161800Z 05002KT 9999 NSC M19/M22 Q1012 RMK R02/CLRD70 NOSIG
UDYE Ереван Эребуни